If you wish to contribute or participate in the discussions about articles you are invited to join SKYbrary as a registered user

 Actions

St Michael Airport

From SKYbrary Wiki

PAMK
Airport
ICAO: PAMK – IATA: SMK
Summary
Name St Michael Airport
Region North America
Territory Alaska US.gif
Location , Alaska
Serving St. Michael
Elevation 29.87 m
98 ft
98 ft29.87 m
Type small airport
Coordinates 63° 29' 24.00" N, 162° 6' 37.00" W
Runways
Designator Length Width Surface ROPS
2/20 1220 m4,002.625 ft
23 m75.459 ft
GRAVEL-G /


METAR
Observation PAMK 181556Z AUTO 21005KT 10SM FEW027 OVC040 M08/M09 A2966 RMK AO2 SNB02E48 SLP046 P0000 T10831094 FZRANO
Station ST MICHAEL
Date/Time 18 April 2019 15:56:00
Wind direction 210°
Wind speed 05 kts
Lowest cloud amount few clouds
Temperature
Dew point
Humidity 91%
QNH hPa
Weather condition n/a